sensor_id;sensor_type;location;lat;lon;timestamp;temperature;humidity
84340;SHT30;74521;45.618;5.212;2024-02-23T00:01:51;21.05;47.92
84340;SHT30;74521;45.618;5.212;2024-02-23T00:04:19;21.09;47.87
84340;SHT30;74521;45.618;5.212;2024-02-23T00:06:45;21.03;47.82
84340;SHT30;74521;45.618;5.212;2024-02-23T00:09:12;21.03;47.77
84340;SHT30;74521;45.618;5.212;2024-02-23T00:11:39;21.03;47.74
84340;SHT30;74521;45.618;5.212;2024-02-23T00:14:09;21.02;47.70
84340;SHT30;74521;45.618;5.212;2024-02-23T00:16:37;21.05;47.77
84340;SHT30;74521;45.618;5.212;2024-02-23T00:19:05;21.02;47.62
84340;SHT30;74521;45.618;5.212;2024-02-23T00:21:33;21.03;47.55
84340;SHT30;74521;45.618;5.212;2024-02-23T00:23:59;21.02;47.59
84340;SHT30;74521;45.618;5.212;2024-02-23T00:26:26;21.02;47.58
84340;SHT30;74521;45.618;5.212;2024-02-23T00:28:53;21.03;47.59
84340;SHT30;74521;45.618;5.212;2024-02-23T00:31:20;21.05;47.58
84340;SHT30;74521;45.618;5.212;2024-02-23T00:33:46;21.03;47.56
84340;SHT30;74521;45.618;5.212;2024-02-23T00:36:13;21.02;47.51
84340;SHT30;74521;45.618;5.212;2024-02-23T00:38:41;20.99;47.52
84340;SHT30;74521;45.618;5.212;2024-02-23T00:41:08;21.01;47.53
84340;SHT30;74521;45.618;5.212;2024-02-23T00:43:38;20.98;47.49
84340;SHT30;74521;45.618;5.212;2024-02-23T00:46:04;21.01;47.56
84340;SHT30;74521;45.618;5.212;2024-02-23T00:48:31;20.98;47.61
84340;SHT30;74521;45.618;5.212;2024-02-23T00:50:57;20.96;47.49
84340;SHT30;74521;45.618;5.212;2024-02-23T00:53:24;20.94;47.43
84340;SHT30;74521;45.618;5.212;2024-02-23T00:55:52;20.99;47.32
84340;SHT30;74521;45.618;5.212;2024-02-23T00:58:19;21.01;47.37
84340;SHT30;74521;45.618;5.212;2024-02-23T01:00:46;20.98;47.36
84340;SHT30;74521;45.618;5.212;2024-02-23T01:03:13;21.01;47.36
84340;SHT30;74521;45.618;5.212;2024-02-23T01:05:39;20.99;47.31
84340;SHT30;74521;45.618;5.212;2024-02-23T01:08:08;20.96;47.29
84340;SHT30;74521;45.618;5.212;2024-02-23T01:10:34;20.96;47.23
84340;SHT30;74521;45.618;5.212;2024-02-23T01:13:03;20.96;47.24
84340;SHT30;74521;45.618;5.212;2024-02-23T01:15:30;20.98;47.16
84340;SHT30;74521;45.618;5.212;2024-02-23T01:17:57;20.94;47.10
84340;SHT30;74521;45.618;5.212;2024-02-23T01:20:23;20.92;46.94
84340;SHT30;74521;45.618;5.212;2024-02-23T01:22:50;20.90;46.94
84340;SHT30;74521;45.618;5.212;2024-02-23T01:25:16;20.88;47.00
84340;SHT30;74521;45.618;5.212;2024-02-23T01:27:43;20.87;46.94
84340;SHT30;74521;45.618;5.212;2024-02-23T01:30:12;20.85;46.77
84340;SHT30;74521;45.618;5.212;2024-02-23T01:32:39;20.87;46.74
84340;SHT30;74521;45.618;5.212;2024-02-23T01:35:06;20.90;46.77
84340;SHT30;74521;45.618;5.212;2024-02-23T01:37:34;20.90;46.79
84340;SHT30;74521;45.618;5.212;2024-02-23T01:40:01;20.90;46.85
84340;SHT30;74521;45.618;5.212;2024-02-23T01:42:27;20.90;46.80
84340;SHT30;74521;45.618;5.212;2024-02-23T01:44:54;20.90;46.76
84340;SHT30;74521;45.618;5.212;2024-02-23T01:47:23;20.88;46.71
84340;SHT30;74521;45.618;5.212;2024-02-23T01:49:50;20.87;46.72
84340;SHT30;74521;45.618;5.212;2024-02-23T01:52:18;20.88;46.64
84340;SHT30;74521;45.618;5.212;2024-02-23T01:54:45;20.87;46.67
84340;SHT30;74521;45.618;5.212;2024-02-23T01:57:11;20.87;46.64
84340;SHT30;74521;45.618;5.212;2024-02-23T01:59:39;20.84;46.64
84340;SHT30;74521;45.618;5.212;2024-02-23T02:02:06;20.85;46.58
84340;SHT30;74521;45.618;5.212;2024-02-23T02:04:34;20.84;46.55
84340;SHT30;74521;45.618;5.212;2024-02-23T02:07:01;20.85;46.47
84340;SHT30;74521;45.618;5.212;2024-02-23T02:09:28;20.87;46.51
84340;SHT30;74521;45.618;5.212;2024-02-23T02:11:54;20.88;46.52
84340;SHT30;74521;45.618;5.212;2024-02-23T02:14:21;20.87;46.50
84340;SHT30;74521;45.618;5.212;2024-02-23T02:16:48;20.87;46.47
84340;SHT30;74521;45.618;5.212;2024-02-23T02:19:14;20.87;46.52
84340;SHT30;74521;45.618;5.212;2024-02-23T02:21:42;20.85;46.48
84340;SHT30;74521;45.618;5.212;2024-02-23T02:24:09;20.84;46.47
84340;SHT30;74521;45.618;5.212;2024-02-23T02:26:37;20.81;46.47
84340;SHT30;74521;45.618;5.212;2024-02-23T02:29:03;20.82;46.48
84340;SHT30;74521;45.618;5.212;2024-02-23T02:31:30;20.80;46.45
84340;SHT30;74521;45.618;5.212;2024-02-23T02:34:02;20.78;46.39
84340;SHT30;74521;45.618;5.212;2024-02-23T02:36:29;20.78;46.37
84340;SHT30;74521;45.618;5.212;2024-02-23T02:38:57;20.78;46.36
84340;SHT30;74521;45.618;5.212;2024-02-23T02:41:27;20.78;46.32
84340;SHT30;74521;45.618;5.212;2024-02-23T02:43:54;20.80;46.30
84340;SHT30;74521;45.618;5.212;2024-02-23T02:46:21;20.78;46.40
84340;SHT30;74521;45.618;5.212;2024-02-23T02:48:48;20.81;46.37
84340;SHT30;74521;45.618;5.212;2024-02-23T02:51:14;20.78;46.35
84340;SHT30;74521;45.618;5.212;2024-02-23T02:53:41;20.80;46.39
84340;SHT30;74521;45.618;5.212;2024-02-23T02:56:09;20.78;46.36
84340;SHT30;74521;45.618;5.212;2024-02-23T02:58:36;20.77;46.30
84340;SHT30;74521;45.618;5.212;2024-02-23T03:01:03;20.75;46.28
84340;SHT30;74521;45.618;5.212;2024-02-23T03:03:29;20.75;46.27
84340;SHT30;74521;45.618;5.212;2024-02-23T03:05:55;20.75;46.33
84340;SHT30;74521;45.618;5.212;2024-02-23T03:08:22;20.74;46.23
84340;SHT30;74521;45.618;5.212;2024-02-23T03:10:48;20.71;46.22
84340;SHT30;74521;45.618;5.212;2024-02-23T03:13:16;20.72;46.20
84340;SHT30;74521;45.618;5.212;2024-02-23T03:15:43;20.70;46.22
84340;SHT30;74521;45.618;5.212;2024-02-23T03:18:10;20.70;46.20
84340;SHT30;74521;45.618;5.212;2024-02-23T03:20:36;20.68;46.20
84340;SHT30;74521;45.618;5.212;2024-02-23T03:23:03;20.70;46.18
84340;SHT30;74521;45.618;5.212;2024-02-23T03:25:30;20.70;46.18
84340;SHT30;74521;45.618;5.212;2024-02-23T03:27:56;20.70;46.21
84340;SHT30;74521;45.618;5.212;2024-02-23T03:30:24;20.72;46.09
84340;SHT30;74521;45.618;5.212;2024-02-23T03:32:51;20.71;46.03
84340;SHT30;74521;45.618;5.212;2024-02-23T03:35:18;20.72;46.08
84340;SHT30;74521;45.618;5.212;2024-02-23T03:37:44;20.70;46.04
84340;SHT30;74521;45.618;5.212;2024-02-23T03:40:12;20.70;46.05
84340;SHT30;74521;45.618;5.212;2024-02-23T03:42:39;20.70;45.97
84340;SHT30;74521;45.618;5.212;2024-02-23T03:45:05;20.65;46.01
84340;SHT30;74521;45.618;5.212;2024-02-23T03:47:33;20.61;45.92
84340;SHT30;74521;45.618;5.212;2024-02-23T03:50:00;20.64;45.95
84340;SHT30;74521;45.618;5.212;2024-02-23T03:52:27;20.65;45.92
84340;SHT30;74521;45.618;5.212;2024-02-23T03:54:53;20.65;45.95
84340;SHT30;74521;45.618;5.212;2024-02-23T03:57:20;20.65;45.97
84340;SHT30;74521;45.618;5.212;2024-02-23T03:59:53;20.64;45.94
84340;SHT30;74521;45.618;5.212;2024-02-23T04:02:20;20.65;45.97
84340;SHT30;74521;45.618;5.212;2024-02-23T04:04:48;20.65;45.92
84340;SHT30;74521;45.618;5.212;2024-02-23T04:07:15;20.65;45.95
84340;SHT30;74521;45.618;5.212;2024-02-23T04:09:42;20.63;45.87
84340;SHT30;74521;45.618;5.212;2024-02-23T04:12:09;20.60;45.86
84340;SHT30;74521;45.618;5.212;2024-02-23T04:14:35;20.60;45.86
84340;SHT30;74521;45.618;5.212;2024-02-23T04:17:02;20.61;45.77
84340;SHT30;74521;45.618;5.212;2024-02-23T04:19:29;20.58;45.82
84340;SHT30;74521;45.618;5.212;2024-02-23T04:21:57;20.58;45.76
84340;SHT30;74521;45.618;5.212;2024-02-23T04:24:24;20.58;45.81
84340;SHT30;74521;45.618;5.212;2024-02-23T04:26:50;20.58;45.81
84340;SHT30;74521;45.618;5.212;2024-02-23T04:29:16;20.58;45.87
84340;SHT30;74521;45.618;5.212;2024-02-23T04:31:42;20.57;45.88
84340;SHT30;74521;45.618;5.212;2024-02-23T04:34:09;20.58;45.85
84340;SHT30;74521;45.618;5.212;2024-02-23T04:36:36;20.58;45.76
84340;SHT30;74521;45.618;5.212;2024-02-23T04:39:04;20.57;45.77
84340;SHT30;74521;45.618;5.212;2024-02-23T04:41:30;20.54;45.73
84340;SHT30;74521;45.618;5.212;2024-02-23T04:43:57;20.55;45.71
84340;SHT30;74521;45.618;5.212;2024-02-23T04:46:25;20.54;45.72
84340;SHT30;74521;45.618;5.212;2024-02-23T04:48:52;20.53;45.68
84340;SHT30;74521;45.618;5.212;2024-02-23T04:51:18;20.53;45.61
84340;SHT30;74521;45.618;5.212;2024-02-23T04:53:47;20.50;45.64
84340;SHT30;74521;45.618;5.212;2024-02-23T04:56:15;20.50;45.54
84340;SHT30;74521;45.618;5.212;2024-02-23T04:58:43;20.50;45.65
84340;SHT30;74521;45.618;5.212;2024-02-23T05:01:09;20.53;45.71
84340;SHT30;74521;45.618;5.212;2024-02-23T05:03:37;20.54;45.71
84340;SHT30;74521;45.618;5.212;2024-02-23T05:06:04;20.55;45.69
84340;SHT30;74521;45.618;5.212;2024-02-23T05:08:31;20.54;45.62
84340;SHT30;74521;45.618;5.212;2024-02-23T05:10:57;20.57;45.55
84340;SHT30;74521;45.618;5.212;2024-02-23T05:13:25;20.55;45.54
84340;SHT30;74521;45.618;5.212;2024-02-23T05:15:55;20.57;45.59
84340;SHT30;74521;45.618;5.212;2024-02-23T05:18:22;20.54;45.52
84340;SHT30;74521;45.618;5.212;2024-02-23T05:20:48;20.54;45.51
84340;SHT30;74521;45.618;5.212;2024-02-23T05:23:15;20.51;45.47
84340;SHT30;74521;45.618;5.212;2024-02-23T05:25:42;20.53;45.50
84340;SHT30;74521;45.618;5.212;2024-02-23T05:28:08;20.50;45.34
84340;SHT30;74521;45.618;5.212;2024-02-23T05:30:36;20.48;45.40
84340;SHT30;74521;45.618;5.212;2024-02-23T05:33:03;20.45;45.43
84340;SHT30;74521;45.618;5.212;2024-02-23T05:35:30;20.47;45.45
84340;SHT30;74521;45.618;5.212;2024-02-23T05:37:57;20.45;45.45
84340;SHT30;74521;45.618;5.212;2024-02-23T05:40:24;20.50;45.46
84340;SHT30;74521;45.618;5.212;2024-02-23T05:42:50;20.47;45.49
84340;SHT30;74521;45.618;5.212;2024-02-23T05:45:17;20.45;45.45
84340;SHT30;74521;45.618;5.212;2024-02-23T05:47:45;20.45;45.40
84340;SHT30;74521;45.618;5.212;2024-02-23T05:50:12;20.44;45.37
84340;SHT30;74521;45.618;5.212;2024-02-23T05:52:39;20.44;45.40
84340;SHT30;74521;45.618;5.212;2024-02-23T05:55:06;20.41;45.38
84340;SHT30;74521;45.618;5.212;2024-02-23T05:57:33;20.43;45.43
84340;SHT30;74521;45.618;5.212;2024-02-23T05:59:59;20.44;45.34
84340;SHT30;74521;45.618;5.212;2024-02-23T06:02:26;20.41;45.27
84340;SHT30;74521;45.618;5.212;2024-02-23T06:04:54;20.41;45.33
84340;SHT30;74521;45.618;5.212;2024-02-23T06:07:21;20.41;45.37
84340;SHT30;74521;45.618;5.212;2024-02-23T06:09:54;20.40;45.37
84340;SHT30;74521;45.618;5.212;2024-02-23T06:12:21;20.41;45.39
84340;SHT30;74521;45.618;5.212;2024-02-23T06:14:47;20.39;45.34
84340;SHT30;74521;45.618;5.212;2024-02-23T06:17:14;20.40;45.34
84340;SHT30;74521;45.618;5.212;2024-02-23T06:19:41;20.41;45.29
84340;SHT30;74521;45.618;5.212;2024-02-23T06:22:09;20.40;45.27
84340;SHT30;74521;45.618;5.212;2024-02-23T06:24:37;20.40;45.26
84340;SHT30;74521;45.618;5.212;2024-02-23T06:27:04;20.40;45.18
84340;SHT30;74521;45.618;5.212;2024-02-23T06:29:31;20.36;45.19
84340;SHT30;74521;45.618;5.212;2024-02-23T06:31:57;20.37;45.10
84340;SHT30;74521;45.618;5.212;2024-02-23T06:34:26;20.37;45.15
84340;SHT30;74521;45.618;5.212;2024-02-23T06:36:53;20.34;45.09
84340;SHT30;74521;45.618;5.212;2024-02-23T06:39:21;20.39;45.09
84340;SHT30;74521;45.618;5.212;2024-02-23T06:41:47;20.37;45.13
84340;SHT30;74521;45.618;5.212;2024-02-23T06:44:14;20.39;45.15
84340;SHT30;74521;45.618;5.212;2024-02-23T06:46:41;20.40;45.18
84340;SHT30;74521;45.618;5.212;2024-02-23T06:49:09;20.40;45.12
84340;SHT30;74521;45.618;5.212;2024-02-23T06:51:36;20.41;45.17
84340;SHT30;74521;45.618;5.212;2024-02-23T06:54:03;20.37;45.06
84340;SHT30;74521;45.618;5.212;2024-02-23T06:56:31;20.39;45.06
84340;SHT30;74521;45.618;5.212;2024-02-23T06:58:59;20.37;45.03
84340;SHT30;74521;45.618;5.212;2024-02-23T07:01:26;20.37;45.02
84340;SHT30;74521;45.618;5.212;2024-02-23T07:03:53;20.34;45.05
84340;SHT30;74521;45.618;5.212;2024-02-23T07:06:19;20.34;44.95
84340;SHT30;74521;45.618;5.212;2024-02-23T07:08:46;20.34;44.96
84340;SHT30;74521;45.618;5.212;2024-02-23T07:11:12;20.39;44.91
84340;SHT30;74521;45.618;5.212;2024-02-23T07:13:42;20.37;45.00
84340;SHT30;74521;45.618;5.212;2024-02-23T07:16:09;20.37;45.03
84340;SHT30;74521;45.618;5.212;2024-02-23T07:18:35;20.39;45.08
84340;SHT30;74521;45.618;5.212;2024-02-23T07:21:02;20.39;45.09
84340;SHT30;74521;45.618;5.212;2024-02-23T07:23:29;20.40;45.09
84340;SHT30;74521;45.618;5.212;2024-02-23T07:25:56;20.41;45.09
84340;SHT30;74521;45.618;5.212;2024-02-23T07:28:22;20.40;45.03
84340;SHT30;74521;45.618;5.212;2024-02-23T07:30:50;20.37;44.94
84340;SHT30;74521;45.618;5.212;2024-02-23T07:33:18;20.37;45.03
84340;SHT30;74521;45.618;5.212;2024-02-23T07:35:45;20.36;44.73
84340;SHT30;74521;45.618;5.212;2024-02-23T07:38:11;20.37;44.81
84340;SHT30;74521;45.618;5.212;2024-02-23T07:40:38;20.36;44.95
84340;SHT30;74521;45.618;5.212;2024-02-23T07:43:05;20.34;45.00
84340;SHT30;74521;45.618;5.212;2024-02-23T07:45:32;20.32;44.84
84340;SHT30;74521;45.618;5.212;2024-02-23T07:48:01;20.32;44.44
84340;SHT30;74521;45.618;5.212;2024-02-23T07:50:27;20.32;43.94
84340;SHT30;74521;45.618;5.212;2024-02-23T07:52:54;20.30;43.61
84340;SHT30;74521;45.618;5.212;2024-02-23T07:55:20;20.27;43.11
84340;SHT30;74521;45.618;5.212;2024-02-23T07:57:47;20.25;42.98
84340;SHT30;74521;45.618;5.212;2024-02-23T08:00:14;20.23;42.71
84340;SHT30;74521;45.618;5.212;2024-02-23T08:02:41;20.20;42.38
84340;SHT30;74521;45.618;5.212;2024-02-23T08:05:09;20.20;42.32
84340;SHT30;74521;45.618;5.212;2024-02-23T08:07:36;20.17;42.32
84340;SHT30;74521;45.618;5.212;2024-02-23T08:10:03;20.15;42.34
84340;SHT30;74521;45.618;5.212;2024-02-23T08:12:30;20.15;42.48
84340;SHT30;74521;45.618;5.212;2024-02-23T08:14:57;20.10;42.56
84340;SHT30;74521;45.618;5.212;2024-02-23T08:17:23;20.10;42.83
84340;SHT30;74521;45.618;5.212;2024-02-23T08:19:50;20.09;43.24
84340;SHT30;74521;45.618;5.212;2024-02-23T08:22:18;20.12;43.36
84340;SHT30;74521;45.618;5.212;2024-02-23T08:24:45;20.16;43.25
84340;SHT30;74521;45.618;5.212;2024-02-23T08:27:12;20.13;43.19
84340;SHT30;74521;45.618;5.212;2024-02-23T08:29:38;20.15;43.09
84340;SHT30;74521;45.618;5.212;2024-02-23T08:32:06;20.13;43.15
84340;SHT30;74521;45.618;5.212;2024-02-23T08:34:33;20.15;43.29
84340;SHT30;74521;45.618;5.212;2024-02-23T08:37:00;20.15;43.31
84340;SHT30;74521;45.618;5.212;2024-02-23T08:39:29;20.10;43.40
84340;SHT30;74521;45.618;5.212;2024-02-23T08:41:55;20.09;43.41
84340;SHT30;74521;45.618;5.212;2024-02-23T08:44:22;20.10;43.30
84340;SHT30;74521;45.618;5.212;2024-02-23T08:46:49;20.06;43.47
84340;SHT30;74521;45.618;5.212;2024-02-23T08:49:15;20.12;43.79
84340;SHT30;74521;45.618;5.212;2024-02-23T08:51:42;20.13;43.81
84340;SHT30;74521;45.618;5.212;2024-02-23T08:54:09;20.15;44.04
84340;SHT30;74521;45.618;5.212;2024-02-23T08:56:38;20.17;44.02
84340;SHT30;74521;45.618;5.212;2024-02-23T08:59:07;20.17;43.84
84340;SHT30;74521;45.618;5.212;2024-02-23T09:01:34;20.19;43.83
84340;SHT30;74521;45.618;5.212;2024-02-23T09:04:01;20.16;43.79
84340;SHT30;74521;45.618;5.212;2024-02-23T09:06:28;20.13;43.81
84340;SHT30;74521;45.618;5.212;2024-02-23T09:08:54;20.16;43.98
84340;SHT30;74521;45.618;5.212;2024-02-23T09:11:22;20.15;43.98
84340;SHT30;74521;45.618;5.212;2024-02-23T09:13:50;20.12;43.95
84340;SHT30;74521;45.618;5.212;2024-02-23T09:16:16;20.12;44.00
84340;SHT30;74521;45.618;5.212;2024-02-23T09:18:44;20.15;43.96
84340;SHT30;74521;45.618;5.212;2024-02-23T09:21:10;20.12;44.07
84340;SHT30;74521;45.618;5.212;2024-02-23T09:23:37;20.10;44.11
84340;SHT30;74521;45.618;5.212;2024-02-23T09:26:08;20.10;44.09
84340;SHT30;74521;45.618;5.212;2024-02-23T09:28:37;20.12;44.10
84340;SHT30;74521;45.618;5.212;2024-02-23T09:31:05;20.15;44.08
84340;SHT30;74521;45.618;5.212;2024-02-23T09:33:31;20.15;44.11
84340;SHT30;74521;45.618;5.212;2024-02-23T09:35:58;20.13;44.14
84340;SHT30;74521;45.618;5.212;2024-02-23T09:38:24;20.15;44.21
84340;SHT30;74521;45.618;5.212;2024-02-23T09:40:51;20.13;44.24
84340;SHT30;74521;45.618;5.212;2024-02-23T09:43:17;20.13;44.27
84340;SHT30;74521;45.618;5.212;2024-02-23T09:45:46;20.13;44.30
84340;SHT30;74521;45.618;5.212;2024-02-23T09:48:16;20.13;44.29
84340;SHT30;74521;45.618;5.212;2024-02-23T09:50:44;20.13;44.38
84340;SHT30;74521;45.618;5.212;2024-02-23T09:53:13;20.16;44.45
84340;SHT30;74521;45.618;5.212;2024-02-23T09:55:40;20.19;44.49
84340;SHT30;74521;45.618;5.212;2024-02-23T09:58:07;20.22;44.45
84340;SHT30;74521;45.618;5.212;2024-02-23T10:00:36;20.23;44.49
84340;SHT30;74521;45.618;5.212;2024-02-23T10:03:05;20.23;44.39
84340;SHT30;74521;45.618;5.212;2024-02-23T10:05:33;20.23;44.50
84340;SHT30;74521;45.618;5.212;2024-02-23T10:08:00;20.22;44.65
84340;SHT30;74521;45.618;5.212;2024-02-23T10:10:29;20.22;44.60
84340;SHT30;74521;45.618;5.212;2024-02-23T10:12:57;20.23;44.61
84340;SHT30;74521;45.618;5.212;2024-02-23T10:15:24;20.20;44.70
84340;SHT30;74521;45.618;5.212;2024-02-23T10:17:50;20.22;44.70
84340;SHT30;74521;45.618;5.212;2024-02-23T10:20:19;20.22;44.73
84340;SHT30;74521;45.618;5.212;2024-02-23T10:22:47;20.22;44.86
84340;SHT30;74521;45.618;5.212;2024-02-23T10:25:14;20.27;44.78
84340;SHT30;74521;45.618;5.212;2024-02-23T10:27:41;20.30;44.62
84340;SHT30;74521;45.618;5.212;2024-02-23T10:30:09;20.33;44.61
84340;SHT30;74521;45.618;5.212;2024-02-23T10:32:38;20.37;44.58
84340;SHT30;74521;45.618;5.212;2024-02-23T10:35:09;20.39;44.74
84340;SHT30;74521;45.618;5.212;2024-02-23T10:37:36;20.40;44.69
84340;SHT30;74521;45.618;5.212;2024-02-23T10:40:07;20.41;44.57
84340;SHT30;74521;45.618;5.212;2024-02-23T10:42:36;20.41;44.63
84340;SHT30;74521;45.618;5.212;2024-02-23T10:45:06;20.41;44.57
84340;SHT30;74521;45.618;5.212;2024-02-23T10:47:34;20.41;44.55
84340;SHT30;74521;45.618;5.212;2024-02-23T10:50:02;20.41;44.66
84340;SHT30;74521;45.618;5.212;2024-02-23T10:52:30;20.39;44.70
84340;SHT30;74521;45.618;5.212;2024-02-23T10:55:00;20.40;44.70
84340;SHT30;74521;45.618;5.212;2024-02-23T10:57:29;20.41;44.73
84340;SHT30;74521;45.618;5.212;2024-02-23T10:59:55;20.43;44.69
84340;SHT30;74521;45.618;5.212;2024-02-23T11:02:24;20.45;44.59
84340;SHT30;74521;45.618;5.212;2024-02-23T11:04:55;20.50;44.57
84340;SHT30;74521;45.618;5.212;2024-02-23T11:07:24;20.54;44.61
84340;SHT30;74521;45.618;5.212;2024-02-23T11:09:53;20.55;44.60
84340;SHT30;74521;45.618;5.212;2024-02-23T11:12:24;20.57;44.54
84340;SHT30;74521;45.618;5.212;2024-02-23T11:14:57;20.60;44.70
84340;SHT30;74521;45.618;5.212;2024-02-23T11:17:26;20.57;44.62
84340;SHT30;74521;45.618;5.212;2024-02-23T11:19:54;20.60;44.67
84340;SHT30;74521;45.618;5.212;2024-02-23T11:22:24;20.60;44.43
84340;SHT30;74521;45.618;5.212;2024-02-23T11:24:52;20.60;44.33
84340;SHT30;74521;45.618;5.212;2024-02-23T11:27:19;20.61;44.58
84340;SHT30;74521;45.618;5.212;2024-02-23T11:29:46;20.61;44.61
84340;SHT30;74521;45.618;5.212;2024-02-23T11:32:16;20.63;44.60
84340;SHT30;74521;45.618;5.212;2024-02-23T11:34:54;20.63;44.53
84340;SHT30;74521;45.618;5.212;2024-02-23T11:37:22;20.65;44.52
84340;SHT30;74521;45.618;5.212;2024-02-23T11:39:49;20.67;44.37
84340;SHT30;74521;45.618;5.212;2024-02-23T11:42:16;20.71;44.46
84340;SHT30;74521;45.618;5.212;2024-02-23T11:44:44;20.71;44.49
84340;SHT30;74521;45.618;5.212;2024-02-23T11:47:10;20.75;44.15
84340;SHT30;74521;45.618;5.212;2024-02-23T11:49:38;20.78;44.09
84340;SHT30;74521;45.618;5.212;2024-02-23T11:52:06;20.80;44.09
84340;SHT30;74521;45.618;5.212;2024-02-23T11:54:33;20.81;44.25
84340;SHT30;74521;45.618;5.212;2024-02-23T11:56:59;20.84;44.29
84340;SHT30;74521;45.618;5.212;2024-02-23T11:59:26;20.84;44.38
84340;SHT30;74521;45.618;5.212;2024-02-23T12:01:53;20.85;44.33
84340;SHT30;74521;45.618;5.212;2024-02-23T12:04:20;20.90;44.36
84340;SHT30;74521;45.618;5.212;2024-02-23T12:06:49;20.88;44.40
84340;SHT30;74521;45.618;5.212;2024-02-23T12:09:16;20.92;44.37
84340;SHT30;74521;45.618;5.212;2024-02-23T12:11:42;20.95;44.40
84340;SHT30;74521;45.618;5.212;2024-02-23T12:14:09;20.96;44.45
84340;SHT30;74521;45.618;5.212;2024-02-23T12:16:36;20.98;44.24
84340;SHT30;74521;45.618;5.212;2024-02-23T12:19:03;21.03;44.01
84340;SHT30;74521;45.618;5.212;2024-02-23T12:21:30;21.06;43.85
84340;SHT30;74521;45.618;5.212;2024-02-23T12:23:58;21.09;43.70
84340;SHT30;74521;45.618;5.212;2024-02-23T12:26:24;21.09;44.01
84340;SHT30;74521;45.618;5.212;2024-02-23T12:28:51;21.09;44.20
84340;SHT30;74521;45.618;5.212;2024-02-23T12:31:23;21.11;44.11
84340;SHT30;74521;45.618;5.212;2024-02-23T12:33:50;21.09;43.78
84340;SHT30;74521;45.618;5.212;2024-02-23T12:36:17;21.09;43.86
84340;SHT30;74521;45.618;5.212;2024-02-23T12:38:44;21.08;43.97
84340;SHT30;74521;45.618;5.212;2024-02-23T12:41:12;21.06;43.53
84340;SHT30;74521;45.618;5.212;2024-02-23T12:43:38;21.06;43.54
84340;SHT30;74521;45.618;5.212;2024-02-23T12:46:05;21.02;43.68
84340;SHT30;74521;45.618;5.212;2024-02-23T12:48:34;21.01;42.54
84340;SHT30;74521;45.618;5.212;2024-02-23T12:51:00;20.99;41.26
84340;SHT30;74521;45.618;5.212;2024-02-23T12:53:32;20.91;40.33
84340;SHT30;74521;45.618;5.212;2024-02-23T12:56:00;20.85;39.76
84340;SHT30;74521;45.618;5.212;2024-02-23T12:58:28;20.80;39.55
84340;SHT30;74521;45.618;5.212;2024-02-23T13:00:55;20.75;39.34
84340;SHT30;74521;45.618;5.212;2024-02-23T13:03:23;20.67;39.48
84340;SHT30;74521;45.618;5.212;2024-02-23T13:05:50;20.64;39.97
84340;SHT30;74521;45.618;5.212;2024-02-23T13:08:17;20.60;39.27
84340;SHT30;74521;45.618;5.212;2024-02-23T13:10:43;20.51;39.15
84340;SHT30;74521;45.618;5.212;2024-02-23T13:13:10;20.47;39.42
84340;SHT30;74521;45.618;5.212;2024-02-23T13:15:39;20.39;38.87
84340;SHT30;74521;45.618;5.212;2024-02-23T13:18:06;20.40;39.80
84340;SHT30;74521;45.618;5.212;2024-02-23T13:20:33;20.41;40.57
84340;SHT30;74521;45.618;5.212;2024-02-23T13:22:59;20.44;40.45
84340;SHT30;74521;45.618;5.212;2024-02-23T13:25:26;20.45;40.43
84340;SHT30;74521;45.618;5.212;2024-02-23T13:27:53;20.45;40.53
84340;SHT30;74521;45.618;5.212;2024-02-23T13:30:20;20.47;40.42
84340;SHT30;74521;45.618;5.212;2024-02-23T13:32:48;20.51;41.01
84340;SHT30;74521;45.618;5.212;2024-02-23T13:35:26;20.47;39.66
84340;SHT30;74521;45.618;5.212;2024-02-23T13:37:54;20.43;39.28
84340;SHT30;74521;45.618;5.212;2024-02-23T13:40:21;20.40;39.23
84340;SHT30;74521;45.618;5.212;2024-02-23T13:42:47;20.36;38.74
84340;SHT30;74521;45.618;5.212;2024-02-23T13:45:16;20.30;38.66
84340;SHT30;74521;45.618;5.212;2024-02-23T13:47:43;20.29;38.61
84340;SHT30;74521;45.618;5.212;2024-02-23T13:50:12;20.22;38.80
84340;SHT30;74521;45.618;5.212;2024-02-23T13:52:39;20.20;39.72
84340;SHT30;74521;45.618;5.212;2024-02-23T13:55:06;20.23;40.34
84340;SHT30;74521;45.618;5.212;2024-02-23T13:57:33;20.26;40.04
84340;SHT30;74521;45.618;5.212;2024-02-23T13:59:59;20.27;40.02
84340;SHT30;74521;45.618;5.212;2024-02-23T14:02:26;20.29;40.18
84340;SHT30;74521;45.618;5.212;2024-02-23T14:05:00;20.30;40.32
84340;SHT30;74521;45.618;5.212;2024-02-23T14:07:30;20.30;40.41
84340;SHT30;74521;45.618;5.212;2024-02-23T14:09:56;20.32;40.64
84340;SHT30;74521;45.618;5.212;2024-02-23T14:12:23;20.34;40.66
84340;SHT30;74521;45.618;5.212;2024-02-23T14:14:50;20.32;40.87
84340;SHT30;74521;45.618;5.212;2024-02-23T14:17:17;20.33;41.13
84340;SHT30;74521;45.618;5.212;2024-02-23T14:19:43;20.33;41.10
84340;SHT30;74521;45.618;5.212;2024-02-23T14:22:11;20.32;41.12
84340;SHT30;74521;45.618;5.212;2024-02-23T14:24:39;20.32;41.11
84340;SHT30;74521;45.618;5.212;2024-02-23T14:27:07;20.37;41.07
84340;SHT30;74521;45.618;5.212;2024-02-23T14:29:33;20.39;41.14
84340;SHT30;74521;45.618;5.212;2024-02-23T14:32:00;20.43;41.16
84340;SHT30;74521;45.618;5.212;2024-02-23T14:34:27;20.44;41.25
84340;SHT30;74521;45.618;5.212;2024-02-23T14:36:55;20.44;41.29
84340;SHT30;74521;45.618;5.212;2024-02-23T14:39:22;20.44;41.41
84340;SHT30;74521;45.618;5.212;2024-02-23T14:41:50;20.45;41.46
84340;SHT30;74521;45.618;5.212;2024-02-23T14:44:17;20.44;41.42
84340;SHT30;74521;45.618;5.212;2024-02-23T14:46:43;20.44;41.42
84340;SHT30;74521;45.618;5.212;2024-02-23T14:49:10;20.45;41.85
84340;SHT30;74521;45.618;5.212;2024-02-23T14:51:36;20.43;41.87
84340;SHT30;74521;45.618;5.212;2024-02-23T14:54:03;20.44;41.91
84340;SHT30;74521;45.618;5.212;2024-02-23T14:56:30;20.44;41.76
84340;SHT30;74521;45.618;5.212;2024-02-23T14:58:59;20.43;41.74
84340;SHT30;74521;45.618;5.212;2024-02-23T15:01:26;20.44;41.90
84340;SHT30;74521;45.618;5.212;2024-02-23T15:03:53;20.45;41.81
84340;SHT30;74521;45.618;5.212;2024-02-23T15:06:20;20.51;41.92
84340;SHT30;74521;45.618;5.212;2024-02-23T15:08:48;20.53;41.84
84340;SHT30;74521;45.618;5.212;2024-02-23T15:11:14;20.54;41.65
84340;SHT30;74521;45.618;5.212;2024-02-23T15:13:41;20.53;41.76
84340;SHT30;74521;45.618;5.212;2024-02-23T15:16:09;20.51;41.76
84340;SHT30;74521;45.618;5.212;2024-02-23T15:18:36;20.53;41.84
84340;SHT30;74521;45.618;5.212;2024-02-23T15:21:03;20.53;41.99
84340;SHT30;74521;45.618;5.212;2024-02-23T15:23:30;20.53;42.10
84340;SHT30;74521;45.618;5.212;2024-02-23T15:25:56;20.50;42.34
84340;SHT30;74521;45.618;5.212;2024-02-23T15:28:23;20.50;42.23
84340;SHT30;74521;45.618;5.212;2024-02-23T15:30:50;20.50;42.28